sensor_id;sensor_type;location;lat;lon;timestamp;pressure;altitude;pressure_sealevel;temperature;humidity
52957;BME280;38819;42.692;23.342;2022-08-01T00:00:08;95165.56;;;22.92;47.45
52957;BME280;38819;42.692;23.342;2022-08-01T00:02:35;95164.50;;;23.01;47.28
52957;BME280;38819;42.692;23.342;2022-08-01T00:05:00;95165.25;;;22.98;47.54
52957;BME280;38819;42.692;23.342;2022-08-01T00:07:26;95162.19;;;22.76;47.66
52957;BME280;38819;42.692;23.342;2022-08-01T00:09:52;95165.59;;;22.66;48.03
52957;BME280;38819;42.692;23.342;2022-08-01T00:12:17;95172.97;;;22.58;48.66
52957;BME280;38819;42.692;23.342;2022-08-01T00:14:42;95174.97;;;22.34;50.31
52957;BME280;38819;42.692;23.342;2022-08-01T00:17:08;95169.28;;;22.00;51.74
52957;BME280;38819;42.692;23.342;2022-08-01T00:19:33;95190.09;;;21.55;53.52
52957;BME280;38819;42.692;23.342;2022-08-01T00:21:59;95187.47;;;21.04;55.23
52957;BME280;38819;42.692;23.342;2022-08-01T00:24:25;95176.47;;;20.84;55.51
52957;BME280;38819;42.692;23.342;2022-08-01T00:26:50;95181.81;;;20.77;55.84
52957;BME280;38819;42.692;23.342;2022-08-01T00:29:15;95191.91;;;20.73;56.13
52957;BME280;38819;42.692;23.342;2022-08-01T00:31:41;95183.19;;;20.35;57.19
52957;BME280;38819;42.692;23.342;2022-08-01T00:34:06;95195.69;;;20.01;58.24
52957;BME280;38819;42.692;23.342;2022-08-01T00:36:31;95193.56;;;19.78;58.63
52957;BME280;38819;42.692;23.342;2022-08-01T00:38:57;95192.09;;;19.69;59.29
52957;BME280;38819;42.692;23.342;2022-08-01T00:41:22;95189.44;;;19.72;58.90
52957;BME280;38819;42.692;23.342;2022-08-01T00:43:48;95184.41;;;19.74;58.88
52957;BME280;38819;42.692;23.342;2022-08-01T00:46:13;95185.78;;;19.80;58.65
52957;BME280;38819;42.692;23.342;2022-08-01T00:48:39;95179.16;;;19.82;58.90
52957;BME280;38819;42.692;23.342;2022-08-01T00:51:05;95176.31;;;19.94;58.39
52957;BME280;38819;42.692;23.342;2022-08-01T00:53:31;95179.50;;;19.96;58.01
52957;BME280;38819;42.692;23.342;2022-08-01T00:55:56;95168.19;;;20.13;57.54
52957;BME280;38819;42.692;23.342;2022-08-01T00:58:22;95166.31;;;20.17;57.21
52957;BME280;38819;42.692;23.342;2022-08-01T01:00:48;95161.81;;;20.25;56.93
52957;BME280;38819;42.692;23.342;2022-08-01T01:03:13;95160.63;;;20.26;56.85
52957;BME280;38819;42.692;23.342;2022-08-01T01:06:41;95149.31;;;20.28;56.58
52957;BME280;38819;42.692;23.342;2022-08-01T01:17:16;95149.38;;;20.47;56.00
52957;BME280;38819;42.692;23.342;2022-08-01T01:19:47;95148.03;;;20.57;55.71
52957;BME280;38819;42.692;23.342;2022-08-01T01:25:09;95141.34;;;20.74;55.79
52957;BME280;38819;42.692;23.342;2022-08-01T01:30:12;95144.34;;;20.85;55.08
52957;BME280;38819;42.692;23.342;2022-08-01T01:32:47;95141.97;;;20.83;54.97
52957;BME280;38819;42.692;23.342;2022-08-01T01:35:17;95137.69;;;20.86;54.59
52957;BME280;38819;42.692;23.342;2022-08-01T01:37:45;95132.50;;;21.00;54.38
52957;BME280;38819;42.692;23.342;2022-08-01T01:40:13;95133.63;;;20.99;53.78
52957;BME280;38819;42.692;23.342;2022-08-01T01:42:41;95122.66;;;20.99;53.70
52957;BME280;38819;42.692;23.342;2022-08-01T01:45:08;95134.44;;;21.00;53.96
52957;BME280;38819;42.692;23.342;2022-08-01T01:47:35;95130.81;;;20.96;54.08
52957;BME280;38819;42.692;23.342;2022-08-01T01:50:01;95121.81;;;20.95;55.70
52957;BME280;38819;42.692;23.342;2022-08-01T01:52:27;95118.91;;;20.88;54.43
52957;BME280;38819;42.692;23.342;2022-08-01T01:54:55;95122.22;;;20.78;57.06
52957;BME280;38819;42.692;23.342;2022-08-01T01:57:22;95117.09;;;20.76;55.23
52957;BME280;38819;42.692;23.342;2022-08-01T01:59:49;95125.78;;;20.78;55.13
52957;BME280;38819;42.692;23.342;2022-08-01T02:02:16;95112.78;;;20.75;54.57
52957;BME280;38819;42.692;23.342;2022-08-01T02:04:45;95117.69;;;20.85;52.21
52957;BME280;38819;42.692;23.342;2022-08-01T02:07:13;95111.53;;;20.92;51.89
52957;BME280;38819;42.692;23.342;2022-08-01T02:09:41;95117.09;;;20.96;50.79
52957;BME280;38819;42.692;23.342;2022-08-01T02:12:10;95109.81;;;21.03;50.65
52957;BME280;38819;42.692;23.342;2022-08-01T02:14:37;95114.06;;;21.01;50.55
52957;BME280;38819;42.692;23.342;2022-08-01T02:17:05;95097.75;;;20.88;50.82
52957;BME280;38819;42.692;23.342;2022-08-01T02:19:33;95111.47;;;20.88;51.08
52957;BME280;38819;42.692;23.342;2022-08-01T02:22:21;95110.31;;;20.89;53.26
52957;BME280;38819;42.692;23.342;2022-08-01T02:27:22;95107.59;;;20.54;54.52
52957;BME280;38819;42.692;23.342;2022-08-01T02:29:58;95113.38;;;20.33;55.02
52957;BME280;38819;42.692;23.342;2022-08-01T02:32:27;95112.50;;;19.93;56.15
52957;BME280;38819;42.692;23.342;2022-08-01T02:34:57;95109.31;;;19.75;56.82
52957;BME280;38819;42.692;23.342;2022-08-01T02:37:26;95118.31;;;19.60;57.20
52957;BME280;38819;42.692;23.342;2022-08-01T02:39:54;95124.13;;;19.58;57.01
52957;BME280;38819;42.692;23.342;2022-08-01T02:42:20;95111.66;;;19.61;57.01
52957;BME280;38819;42.692;23.342;2022-08-01T02:44:47;95116.09;;;19.66;56.44
52957;BME280;38819;42.692;23.342;2022-08-01T02:47:14;95108.56;;;19.62;56.50
52957;BME280;38819;42.692;23.342;2022-08-01T02:49:45;95123.69;;;19.56;57.32
52957;BME280;38819;42.692;23.342;2022-08-01T02:52:14;95103.91;;;19.63;57.21
52957;BME280;38819;42.692;23.342;2022-08-01T02:54:41;95122.97;;;19.59;57.26
52957;BME280;38819;42.692;23.342;2022-08-01T02:57:09;95107.06;;;19.49;57.02
52957;BME280;38819;42.692;23.342;2022-08-01T02:59:37;95103.91;;;19.63;56.85
52957;BME280;38819;42.692;23.342;2022-08-01T03:02:04;95110.34;;;19.55;56.89
52957;BME280;38819;42.692;23.342;2022-08-01T03:04:33;95105.84;;;19.47;56.60
52957;BME280;38819;42.692;23.342;2022-08-01T03:07:00;95111.06;;;19.52;56.59
52957;BME280;38819;42.692;23.342;2022-08-01T03:09:28;95116.88;;;19.50;56.57
52957;BME280;38819;42.692;23.342;2022-08-01T03:11:58;95109.34;;;19.47;56.68
52957;BME280;38819;42.692;23.342;2022-08-01T03:14:25;95115.28;;;19.49;56.38
52957;BME280;38819;42.692;23.342;2022-08-01T03:16:52;95113.13;;;19.27;56.69
52957;BME280;38819;42.692;23.342;2022-08-01T03:19:18;95117.44;;;19.28;56.30
52957;BME280;38819;42.692;23.342;2022-08-01T03:21:46;95109.75;;;19.17;56.65
52957;BME280;38819;42.692;23.342;2022-08-01T03:24:12;95111.78;;;19.20;56.78
52957;BME280;38819;42.692;23.342;2022-08-01T03:26:39;95110.56;;;19.18;56.83
52957;BME280;38819;42.692;23.342;2022-08-01T03:29:06;95117.00;;;19.25;56.62
52957;BME280;38819;42.692;23.342;2022-08-01T03:31:36;95120.19;;;19.28;56.73
52957;BME280;38819;42.692;23.342;2022-08-01T03:34:03;95113.06;;;19.39;56.41
52957;BME280;38819;42.692;23.342;2022-08-01T03:36:31;95119.97;;;19.49;55.99
52957;BME280;38819;42.692;23.342;2022-08-01T03:39:01;95121.31;;;19.55;55.80
52957;BME280;38819;42.692;23.342;2022-08-01T03:41:32;95122.91;;;19.72;55.57
52957;BME280;38819;42.692;23.342;2022-08-01T03:44:05;95109.31;;;19.75;54.80
52957;BME280;38819;42.692;23.342;2022-08-01T03:46:36;95120.72;;;19.93;55.53
52957;BME280;38819;42.692;23.342;2022-08-01T03:49:10;95120.00;;;19.96;55.04
52957;BME280;38819;42.692;23.342;2022-08-01T03:51:36;95120.59;;;20.06;55.84
52957;BME280;38819;42.692;23.342;2022-08-01T03:54:03;95126.25;;;20.13;55.68
52957;BME280;38819;42.692;23.342;2022-08-01T03:56:31;95130.88;;;19.77;56.29
52957;BME280;38819;42.692;23.342;2022-08-01T03:58:59;95131.44;;;19.54;56.72
52957;BME280;38819;42.692;23.342;2022-08-01T04:01:24;95135.00;;;19.55;56.93
52957;BME280;38819;42.692;23.342;2022-08-01T04:03:51;95126.41;;;19.40;56.60
52957;BME280;38819;42.692;23.342;2022-08-01T04:06:16;95134.41;;;19.17;57.50
52957;BME280;38819;42.692;23.342;2022-08-01T04:08:42;95128.38;;;19.12;57.53
52957;BME280;38819;42.692;23.342;2022-08-01T04:11:09;95124.97;;;19.31;57.43
52957;BME280;38819;42.692;23.342;2022-08-01T04:13:34;95128.09;;;19.45;57.31
52957;BME280;38819;42.692;23.342;2022-08-01T04:16:00;95126.84;;;19.42;56.69
52957;BME280;38819;42.692;23.342;2022-08-01T04:18:26;95133.03;;;19.39;56.87
52957;BME280;38819;42.692;23.342;2022-08-01T04:20:51;95131.88;;;19.40;57.39
52957;BME280;38819;42.692;23.342;2022-08-01T04:23:23;95134.88;;;19.35;57.27
52957;BME280;38819;42.692;23.342;2022-08-01T04:25:50;95135.41;;;19.41;57.18
52957;BME280;38819;42.692;23.342;2022-08-01T04:28:16;95141.56;;;19.22;57.82
52957;BME280;38819;42.692;23.342;2022-08-01T04:30:43;95137.94;;;19.18;57.67
52957;BME280;38819;42.692;23.342;2022-08-01T04:33:13;95135.94;;;19.31;57.29
52957;BME280;38819;42.692;23.342;2022-08-01T04:35:43;95135.13;;;19.30;57.49
52957;BME280;38819;42.692;23.342;2022-08-01T04:38:12;95134.00;;;19.47;57.04
52957;BME280;38819;42.692;23.342;2022-08-01T04:40:40;95132.97;;;19.68;56.58
52957;BME280;38819;42.692;23.342;2022-08-01T04:43:07;95131.13;;;19.72;56.09
52957;BME280;38819;42.692;23.342;2022-08-01T04:45:33;95131.41;;;19.83;56.12
52957;BME280;38819;42.692;23.342;2022-08-01T04:47:59;95123.38;;;19.90;55.89
52957;BME280;38819;42.692;23.342;2022-08-01T04:50:25;95126.72;;;19.99;55.71
52957;BME280;38819;42.692;23.342;2022-08-01T04:52:51;95132.00;;;20.08;55.29
52957;BME280;38819;42.692;23.342;2022-08-01T04:55:17;95128.47;;;20.23;54.96
52957;BME280;38819;42.692;23.342;2022-08-01T04:57:44;95132.78;;;20.24;55.27
52957;BME280;38819;42.692;23.342;2022-08-01T05:00:10;95127.00;;;20.10;54.88
52957;BME280;38819;42.692;23.342;2022-08-01T05:02:36;95132.00;;;20.24;54.23
52957;BME280;38819;42.692;23.342;2022-08-01T05:05:01;95120.53;;;20.38;54.27
52957;BME280;38819;42.692;23.342;2022-08-01T05:07:27;95118.78;;;20.29;53.88
52957;BME280;38819;42.692;23.342;2022-08-01T05:09:52;95115.34;;;20.32;53.46
52957;BME280;38819;42.692;23.342;2022-08-01T05:12:18;95126.38;;;20.36;53.41
52957;BME280;38819;42.692;23.342;2022-08-01T05:14:44;95122.84;;;20.35;53.04
52957;BME280;38819;42.692;23.342;2022-08-01T05:17:10;95112.38;;;20.41;52.64
52957;BME280;38819;42.692;23.342;2022-08-01T05:19:37;95109.19;;;20.55;52.58
52957;BME280;38819;42.692;23.342;2022-08-01T05:22:05;95108.00;;;20.72;52.15
52957;BME280;38819;42.692;23.342;2022-08-01T05:24:32;95108.34;;;20.70;51.46
52957;BME280;38819;42.692;23.342;2022-08-01T05:26:58;95111.66;;;20.80;51.94
52957;BME280;38819;42.692;23.342;2022-08-01T05:29:24;95126.41;;;20.91;51.32
52957;BME280;38819;42.692;23.342;2022-08-01T05:31:50;95120.22;;;20.94;50.16
52957;BME280;38819;42.692;23.342;2022-08-01T05:34:16;95121.50;;;21.00;50.19
52957;BME280;38819;42.692;23.342;2022-08-01T05:36:42;95121.28;;;21.09;49.21
52957;BME280;38819;42.692;23.342;2022-08-01T05:39:07;95125.25;;;21.12;50.07
52957;BME280;38819;42.692;23.342;2022-08-01T05:41:33;95116.75;;;21.17;50.04
52957;BME280;38819;42.692;23.342;2022-08-01T05:43:59;95125.75;;;21.17;50.62
52957;BME280;38819;42.692;23.342;2022-08-01T05:46:24;95109.88;;;21.07;50.16
52957;BME280;38819;42.692;23.342;2022-08-01T05:48:50;95110.13;;;21.21;50.12
52957;BME280;38819;42.692;23.342;2022-08-01T05:51:15;95113.34;;;21.23;50.33
52957;BME280;38819;42.692;23.342;2022-08-01T05:53:41;95111.06;;;21.29;50.39
52957;BME280;38819;42.692;23.342;2022-08-01T05:56:06;95116.56;;;21.49;49.78
52957;BME280;38819;42.692;23.342;2022-08-01T05:58:32;95119.84;;;21.58;48.61
52957;BME280;38819;42.692;23.342;2022-08-01T06:00:58;95120.28;;;21.60;49.30
52957;BME280;38819;42.692;23.342;2022-08-01T06:03:23;95123.91;;;21.64;48.65
52957;BME280;38819;42.692;23.342;2022-08-01T06:05:49;95125.91;;;21.67;48.61
52957;BME280;38819;42.692;23.342;2022-08-01T06:08:14;95128.31;;;21.69;47.91
52957;BME280;38819;42.692;23.342;2022-08-01T06:10:40;95122.81;;;21.69;47.45
52957;BME280;38819;42.692;23.342;2022-08-01T06:13:05;95119.38;;;21.75;47.93
52957;BME280;38819;42.692;23.342;2022-08-01T06:15:31;95115.41;;;21.73;47.97
52957;BME280;38819;42.692;23.342;2022-08-01T06:17:57;95127.28;;;21.77;48.23
52957;BME280;38819;42.692;23.342;2022-08-01T06:20:22;95120.66;;;21.81;48.25
52957;BME280;38819;42.692;23.342;2022-08-01T06:22:48;95126.88;;;21.78;47.87
52957;BME280;38819;42.692;23.342;2022-08-01T06:25:13;95123.44;;;21.85;47.84
52957;BME280;38819;42.692;23.342;2022-08-01T06:27:38;95121.72;;;22.00;48.12
52957;BME280;38819;42.692;23.342;2022-08-01T06:30:04;95121.72;;;22.00;47.99
52957;BME280;38819;42.692;23.342;2022-08-01T06:32:30;95114.41;;;22.08;47.16
52957;BME280;38819;42.692;23.342;2022-08-01T06:34:56;95123.44;;;22.08;46.03
52957;BME280;38819;42.692;23.342;2022-08-01T06:37:22;95121.38;;;22.01;46.08
52957;BME280;38819;42.692;23.342;2022-08-01T06:39:48;95110.13;;;22.10;45.59
52957;BME280;38819;42.692;23.342;2022-08-01T06:42:14;95114.56;;;22.18;45.08
52957;BME280;38819;42.692;23.342;2022-08-01T06:44:40;95119.75;;;22.24;45.60
52957;BME280;38819;42.692;23.342;2022-08-01T06:47:06;95106.59;;;22.36;44.08
52957;BME280;38819;42.692;23.342;2022-08-01T06:49:31;95100.13;;;22.52;43.58
52957;BME280;38819;42.692;23.342;2022-08-01T06:51:57;95101.03;;;22.60;43.27
52957;BME280;38819;42.692;23.342;2022-08-01T06:54:22;95097.97;;;22.68;42.75
52957;BME280;38819;42.692;23.342;2022-08-01T06:56:47;95096.88;;;22.73;42.65
52957;BME280;38819;42.692;23.342;2022-08-01T06:59:13;95100.53;;;22.81;42.94
52957;BME280;38819;42.692;23.342;2022-08-01T07:01:38;95087.88;;;22.76;43.33
52957;BME280;38819;42.692;23.342;2022-08-01T07:04:04;95087.50;;;22.78;42.41
52957;BME280;38819;42.692;23.342;2022-08-01T07:06:30;95087.47;;;22.74;43.24
52957;BME280;38819;42.692;23.342;2022-08-01T07:08:55;95086.72;;;22.77;43.10
52957;BME280;38819;42.692;23.342;2022-08-01T07:11:22;95100.63;;;22.91;43.26
52957;BME280;38819;42.692;23.342;2022-08-01T07:13:47;95104.50;;;22.87;42.73
52957;BME280;38819;42.692;23.342;2022-08-01T07:16:13;95092.34;;;22.88;42.83
52957;BME280;38819;42.692;23.342;2022-08-01T07:18:39;95088.75;;;22.84;43.21
52957;BME280;38819;42.692;23.342;2022-08-01T07:21:05;95093.78;;;22.78;43.04
52957;BME280;38819;42.692;23.342;2022-08-01T07:23:30;95099.78;;;22.84;42.87
52957;BME280;38819;42.692;23.342;2022-08-01T07:25:55;95099.81;;;22.87;42.74
52957;BME280;38819;42.692;23.342;2022-08-01T07:28:21;95089.59;;;22.88;43.24
52957;BME280;38819;42.692;23.342;2022-08-01T07:30:46;95106.81;;;22.81;42.84
52957;BME280;38819;42.692;23.342;2022-08-01T07:33:12;95096.25;;;22.87;42.88
52957;BME280;38819;42.692;23.342;2022-08-01T07:35:38;95092.41;;;22.95;42.58
52957;BME280;38819;42.692;23.342;2022-08-01T07:38:05;95127.03;;;22.92;42.44
52957;BME280;38819;42.692;23.342;2022-08-01T07:40:31;95102.09;;;22.82;42.46
52957;BME280;38819;42.692;23.342;2022-08-01T07:42:56;95111.03;;;22.75;42.66
52957;BME280;38819;42.692;23.342;2022-08-01T07:45:21;95111.50;;;22.77;42.76
52957;BME280;38819;42.692;23.342;2022-08-01T07:47:47;95112.97;;;22.71;42.85
52957;BME280;38819;42.692;23.342;2022-08-01T07:50:15;95109.84;;;22.72;43.50
52957;BME280;38819;42.692;23.342;2022-08-01T07:52:41;95108.34;;;22.79;43.24
52957;BME280;38819;42.692;23.342;2022-08-01T07:55:07;95096.91;;;22.76;43.44
52957;BME280;38819;42.692;23.342;2022-08-01T07:57:33;95104.13;;;22.88;43.05
52957;BME280;38819;42.692;23.342;2022-08-01T07:59:58;95095.16;;;22.95;43.25
52957;BME280;38819;42.692;23.342;2022-08-01T08:02:24;95090.47;;;22.96;43.44
52957;BME280;38819;42.692;23.342;2022-08-01T08:04:49;95083.81;;;23.00;43.54
52957;BME280;38819;42.692;23.342;2022-08-01T08:07:15;95097.38;;;23.12;43.36
52957;BME280;38819;42.692;23.342;2022-08-01T08:09:40;95101.00;;;23.20;43.73
52957;BME280;38819;42.692;23.342;2022-08-01T08:12:06;95111.72;;;23.29;42.57
52957;BME280;38819;42.692;23.342;2022-08-01T08:14:31;95091.63;;;23.28;42.82
52957;BME280;38819;42.692;23.342;2022-08-01T08:16:57;95102.75;;;23.36;42.63
52957;BME280;38819;42.692;23.342;2022-08-01T08:19:22;95102.31;;;23.34;42.89
52957;BME280;38819;42.692;23.342;2022-08-01T08:21:47;95100.75;;;23.33;41.89
52957;BME280;38819;42.692;23.342;2022-08-01T08:24:13;95104.22;;;23.26;42.68
52957;BME280;38819;42.692;23.342;2022-08-01T08:26:45;95107.88;;;23.37;42.79
52957;BME280;38819;42.692;23.342;2022-08-01T08:29:10;95114.91;;;23.31;42.14
52957;BME280;38819;42.692;23.342;2022-08-01T08:31:35;95104.72;;;23.39;41.95
52957;BME280;38819;42.692;23.342;2022-08-01T08:34:01;95097.66;;;23.38;41.58
52957;BME280;38819;42.692;23.342;2022-08-01T08:36:26;95091.78;;;23.43;41.99
52957;BME280;38819;42.692;23.342;2022-08-01T08:38:52;95093.84;;;23.53;41.88
52957;BME280;38819;42.692;23.342;2022-08-01T08:41:17;95105.31;;;23.59;40.94
52957;BME280;38819;42.692;23.342;2022-08-01T08:43:43;95084.84;;;23.60;41.52
52957;BME280;38819;42.692;23.342;2022-08-01T08:46:09;95098.25;;;23.58;41.20
52957;BME280;38819;42.692;23.342;2022-08-01T08:48:37;95104.19;;;23.63;40.80
52957;BME280;38819;42.692;23.342;2022-08-01T08:51:04;95098.22;;;23.54;40.94
52957;BME280;38819;42.692;23.342;2022-08-01T08:53:32;95077.72;;;23.55;40.82
52957;BME280;38819;42.692;23.342;2022-08-01T08:55:58;95116.06;;;23.67;41.12
52957;BME280;38819;42.692;23.342;2022-08-01T08:58:25;95083.78;;;23.72;38.63
52957;BME280;38819;42.692;23.342;2022-08-01T09:00:53;95082.66;;;23.76;39.70
52957;BME280;38819;42.692;23.342;2022-08-01T09:03:18;95072.06;;;23.82;38.90
52957;BME280;38819;42.692;23.342;2022-08-01T09:05:44;95109.94;;;23.85;39.51
52957;BME280;38819;42.692;23.342;2022-08-01T09:08:09;95063.34;;;23.76;39.95
52957;BME280;38819;42.692;23.342;2022-08-01T09:10:35;95097.34;;;23.88;40.31
52957;BME280;38819;42.692;23.342;2022-08-01T09:13:05;95075.66;;;23.86;39.80
52957;BME280;38819;42.692;23.342;2022-08-01T09:15:44;95079.63;;;23.89;39.82
52957;BME280;38819;42.692;23.342;2022-08-01T09:18:36;95065.91;;;23.99;39.33
52957;BME280;38819;42.692;23.342;2022-08-01T09:21:18;95085.28;;;24.07;39.19
52957;BME280;38819;42.692;23.342;2022-08-01T09:23:48;95065.97;;;24.10;38.92
52957;BME280;38819;42.692;23.342;2022-08-01T09:26:28;95067.56;;;24.08;38.92
52957;BME280;38819;42.692;23.342;2022-08-01T09:28:54;95064.84;;;24.18;38.38
52957;BME280;38819;42.692;23.342;2022-08-01T09:31:20;95065.63;;;24.19;38.54
52957;BME280;38819;42.692;23.342;2022-08-01T09:34:00;95057.81;;;24.25;37.95
52957;BME280;38819;42.692;23.342;2022-08-01T09:39:30;95077.53;;;24.30;37.91
52957;BME280;38819;42.692;23.342;2022-08-01T09:41:58;95073.25;;;24.33;37.99
52957;BME280;38819;42.692;23.342;2022-08-01T09:47:02;95060.22;;;24.33;38.07
52957;BME280;38819;42.692;23.342;2022-08-01T09:49:32;95066.59;;;24.41;38.29
52957;BME280;38819;42.692;23.342;2022-08-01T09:52:00;95075.66;;;24.41;37.81
52957;BME280;38819;42.692;23.342;2022-08-01T09:54:35;95091.38;;;24.34;38.66
52957;BME280;38819;42.692;23.342;2022-08-01T09:57:18;95067.69;;;24.29;39.10
52957;BME280;38819;42.692;23.342;2022-08-01T09:59:50;95068.59;;;24.48;38.79
52957;BME280;38819;42.692;23.342;2022-08-01T10:02:38;95070.66;;;24.58;38.46
52957;BME280;38819;42.692;23.342;2022-08-01T10:05:07;95063.16;;;24.58;37.83
52957;BME280;38819;42.692;23.342;2022-08-01T10:07:33;95059.63;;;24.62;37.71
52957;BME280;38819;42.692;23.342;2022-08-01T10:10:13;95045.06;;;24.68;38.37
52957;BME280;38819;42.692;23.342;2022-08-01T10:12:39;95054.94;;;24.76;38.77
52957;BME280;38819;42.692;23.342;2022-08-01T10:15:06;95071.13;;;24.78;38.26
52957;BME280;38819;42.692;23.342;2022-08-01T10:17:32;95075.44;;;24.68;38.81
52957;BME280;38819;42.692;23.342;2022-08-01T10:20:02;95053.69;;;24.56;38.87
52957;BME280;38819;42.692;23.342;2022-08-01T10:22:30;95052.19;;;24.76;38.18
52957;BME280;38819;42.692;23.342;2022-08-01T10:24:56;95061.69;;;24.86;38.59
52957;BME280;38819;42.692;23.342;2022-08-01T10:27:25;95047.88;;;24.86;38.22
52957;BME280;38819;42.692;23.342;2022-08-01T10:29:58;95041.91;;;24.77;38.16
52957;BME280;38819;42.692;23.342;2022-08-01T10:32:32;95053.75;;;24.74;37.85
52957;BME280;38819;42.692;23.342;2022-08-01T10:35:00;95031.31;;;24.86;38.29
52957;BME280;38819;42.692;23.342;2022-08-01T10:37:26;95030.94;;;24.88;38.79
52957;BME280;38819;42.692;23.342;2022-08-01T10:39:52;95026.63;;;24.98;38.81
52957;BME280;38819;42.692;23.342;2022-08-01T10:42:18;95044.38;;;24.93;38.64
52957;BME280;38819;42.692;23.342;2022-08-01T10:44:45;95036.47;;;25.02;38.71
52957;BME280;38819;42.692;23.342;2022-08-01T10:47:25;95027.78;;;24.96;38.67
52957;BME280;38819;42.692;23.342;2022-08-01T10:52:32;95024.25;;;24.96;38.32
52957;BME280;38819;42.692;23.342;2022-08-01T10:55:05;95032.16;;;25.08;37.69
52957;BME280;38819;42.692;23.342;2022-08-01T10:57:45;95049.53;;;25.12;37.80
52957;BME280;38819;42.692;23.342;2022-08-01T11:00:18;95040.44;;;24.98;37.36
52957;BME280;38819;42.692;23.342;2022-08-01T11:02:58;95035.69;;;24.98;38.36
52957;BME280;38819;42.692;23.342;2022-08-01T11:05:26;95037.25;;;24.95;38.16
52957;BME280;38819;42.692;23.342;2022-08-01T11:07:54;95034.53;;;25.06;38.38
52957;BME280;38819;42.692;23.342;2022-08-01T11:10:40;95037.69;;;24.98;38.08
52957;BME280;38819;42.692;23.342;2022-08-01T11:13:08;95056.19;;;24.93;38.41
52957;BME280;38819;42.692;23.342;2022-08-01T11:15:35;95030.94;;;24.91;38.69
52957;BME280;38819;42.692;23.342;2022-08-01T11:18:02;95017.91;;;24.99;38.92
52957;BME280;38819;42.692;23.342;2022-08-01T11:20:33;95017.13;;;25.02;38.59
52957;BME280;38819;42.692;23.342;2022-08-01T11:38:44;94992.72;;;25.19;37.90
52957;BME280;38819;42.692;23.342;2022-08-01T11:44:00;95019.19;;;25.34;38.16
52957;BME280;38819;42.692;23.342;2022-08-01T11:46:48;94993.53;;;25.26;38.05
52957;BME280;38819;42.692;23.342;2022-08-01T11:54:48;94998.69;;;25.42;38.35
52957;BME280;38819;42.692;23.342;2022-08-01T11:57:18;94996.31;;;25.37;38.39
52957;BME280;38819;42.692;23.342;2022-08-01T11:59:47;94999.09;;;25.51;38.09
52957;BME280;38819;42.692;23.342;2022-08-01T12:02:28;94994.75;;;25.47;38.01
52957;BME280;38819;42.692;23.342;2022-08-01T12:05:08;94998.69;;;25.57;37.93
52957;BME280;38819;42.692;23.342;2022-08-01T12:07:35;95010.16;;;25.44;37.96
52957;BME280;38819;42.692;23.342;2022-08-01T12:10:02;94999.09;;;25.51;38.07
52957;BME280;38819;42.692;23.342;2022-08-01T12:12:29;94989.22;;;25.43;37.52
52957;BME280;38819;42.692;23.342;2022-08-01T12:14:58;94986.84;;;25.45;38.24
52957;BME280;38819;42.692;23.342;2022-08-01T12:17:38;94994.72;;;25.54;38.33
52957;BME280;38819;42.692;23.342;2022-08-01T12:20:06;94996.72;;;25.54;38.06
52957;BME280;38819;42.692;23.342;2022-08-01T12:22:33;94993.53;;;25.66;37.94
52957;BME280;38819;42.692;23.342;2022-08-01T12:25:10;95001.44;;;25.67;37.52
52957;BME280;38819;42.692;23.342;2022-08-01T12:27:37;94995.94;;;25.71;37.94
52957;BME280;38819;42.692;23.342;2022-08-01T12:30:07;95020.03;;;25.78;37.97
52957;BME280;38819;42.692;23.342;2022-08-01T12:32:35;95003.03;;;25.65;37.20
52957;BME280;38819;42.692;23.342;2022-08-01T12:37:32;94994.31;;;25.81;37.29
52957;BME280;38819;42.692;23.342;2022-08-01T12:39:57;94988.00;;;25.87;36.83
52957;BME280;38819;42.692;23.342;2022-08-01T12:42:24;95004.59;;;25.95;37.24
52957;BME280;38819;42.692;23.342;2022-08-01T12:44:51;94996.69;;;25.93;37.17
52957;BME280;38819;42.692;23.342;2022-08-01T12:47:18;94987.59;;;25.89;37.07
52957;BME280;38819;42.692;23.342;2022-08-01T12:49:46;94999.88;;;25.92;37.53
52957;BME280;38819;42.692;23.342;2022-08-01T12:52:12;94992.38;;;25.96;37.12
52957;BME280;38819;42.692;23.342;2022-08-01T12:55:13;94980.91;;;25.86;37.58
52957;BME280;38819;42.692;23.342;2022-08-01T12:57:41;94986.81;;;25.88;37.57
52957;BME280;38819;42.692;23.342;2022-08-01T13:00:12;94978.13;;;25.90;37.77
52957;BME280;38819;42.692;23.342;2022-08-01T13:02:39;94976.56;;;26.00;37.41
52957;BME280;38819;42.692;23.342;2022-08-01T13:05:06;94980.47;;;26.06;37.89
52957;BME280;38819;42.692;23.342;2022-08-01T13:10:10;94973.41;;;26.01;37.42
52957;BME280;38819;42.692;23.342;2022-08-01T13:12:37;94969.81;;;26.12;37.83
52957;BME280;38819;42.692;23.342;2022-08-01T13:15:30;94991.56;;;26.02;37.91
52957;BME280;38819;42.692;23.342;2022-08-01T13:18:02;94972.56;;;26.12;37.47
52957;BME280;38819;42.692;23.342;2022-08-01T13:20:45;94963.47;;;26.18;38.03
52957;BME280;38819;42.692;23.342;2022-08-01T13:23:18;94973.72;;;26.25;37.50
52957;BME280;38819;42.692;23.342;2022-08-01T13:25:53;94965.81;;;26.23;37.20
52957;BME280;38819;42.692;23.342;2022-08-01T13:28:23;94976.09;;;26.19;37.39
52957;BME280;38819;42.692;23.342;2022-08-01T13:31:06;94967.00;;;26.30;37.73
52957;BME280;38819;42.692;23.342;2022-08-01T13:33:47;94971.34;;;26.27;37.42
52957;BME280;38819;42.692;23.342;2022-08-01T13:36:14;94952.00;;;26.20;37.55
52957;BME280;38819;42.692;23.342;2022-08-01T13:38:40;94951.53;;;26.36;37.49
52957;BME280;38819;42.692;23.342;2022-08-01T13:41:25;94960.66;;;26.36;37.23
52957;BME280;38819;42.692;23.342;2022-08-01T13:43:50;94961.84;;;26.28;37.39
52957;BME280;38819;42.692;23.342;2022-08-01T13:46:16;94943.25;;;26.29;37.64
52957;BME280;38819;42.692;23.342;2022-08-01T13:48:41;94962.63;;;26.29;37.99